sensor_id;sensor_type;location;lat;lon;timestamp;pressure;altitude;pressure_sealevel;temperature;humidity
69980;BME280;57318;56.232;43.944;2023-09-18T00:01:51;99651.56;;;9.00;74.41
69980;BME280;57318;56.232;43.944;2023-09-18T00:04:17;99643.94;;;8.95;74.42
69980;BME280;57318;56.232;43.944;2023-09-18T00:06:42;99640.75;;;8.90;74.73
69980;BME280;57318;56.232;43.944;2023-09-18T00:09:08;99642.78;;;8.87;74.69
69980;BME280;57318;56.232;43.944;2023-09-18T00:11:37;99641.19;;;8.84;74.76
69980;BME280;57318;56.232;43.944;2023-09-18T00:14:07;99636.31;;;8.78;75.16
69980;BME280;57318;56.232;43.944;2023-09-18T00:16:33;99640.13;;;8.74;75.37
69980;BME280;57318;56.232;43.944;2023-09-18T00:18:59;99642.03;;;8.72;75.31
69980;BME280;57318;56.232;43.944;2023-09-18T00:21:26;99636.94;;;8.69;75.45
69980;BME280;57318;56.232;43.944;2023-09-18T00:23:52;99628.16;;;8.68;75.33
69980;BME280;57318;56.232;43.944;2023-09-18T00:26:18;99633.78;;;8.63;75.47
69980;BME280;57318;56.232;43.944;2023-09-18T00:28:43;99631.34;;;8.60;75.58
69980;BME280;57318;56.232;43.944;2023-09-18T00:31:09;99632.50;;;8.56;75.85
69980;BME280;57318;56.232;43.944;2023-09-18T00:33:35;99627.50;;;8.52;75.98
69980;BME280;57318;56.232;43.944;2023-09-18T00:36:01;99624.22;;;8.48;76.21
69980;BME280;57318;56.232;43.944;2023-09-18T00:38:27;99628.03;;;8.44;76.36
69980;BME280;57318;56.232;43.944;2023-09-18T00:40:53;99621.22;;;8.40;76.53
69980;BME280;57318;56.232;43.944;2023-09-18T00:43:19;99626.75;;;8.37;76.59
69980;BME280;57318;56.232;43.944;2023-09-18T00:45:47;99619.00;;;8.34;76.83
69980;BME280;57318;56.232;43.944;2023-09-18T00:48:17;99623.53;;;8.31;76.85
69980;BME280;57318;56.232;43.944;2023-09-18T00:50:46;99622.78;;;8.29;76.86
69980;BME280;57318;56.232;43.944;2023-09-18T00:53:17;99609.78;;;8.26;77.13
69980;BME280;57318;56.232;43.944;2023-09-18T00:55:43;99615.06;;;8.26;77.09
69980;BME280;57318;56.232;43.944;2023-09-18T00:58:10;99606.28;;;8.26;77.00
69980;BME280;57318;56.232;43.944;2023-09-18T01:00:36;99606.50;;;8.23;77.07
69980;BME280;57318;56.232;43.944;2023-09-18T01:03:02;99614.63;;;8.20;77.18
69980;BME280;57318;56.232;43.944;2023-09-18T01:05:34;99606.06;;;8.16;77.55
69980;BME280;57318;56.232;43.944;2023-09-18T01:08:01;99616.75;;;8.15;77.54
69980;BME280;57318;56.232;43.944;2023-09-18T01:10:35;99608.25;;;8.09;77.91
69980;BME280;57318;56.232;43.944;2023-09-18T01:13:05;99592.69;;;8.05;77.78
69980;BME280;57318;56.232;43.944;2023-09-18T01:15:53;99593.66;;;8.04;77.99
69980;BME280;57318;56.232;43.944;2023-09-18T01:18:20;99594.69;;;8.01;78.39
69980;BME280;57318;56.232;43.944;2023-09-18T01:20:46;99594.06;;;7.98;78.43
69980;BME280;57318;56.232;43.944;2023-09-18T01:23:11;99586.22;;;7.96;78.51
69980;BME280;57318;56.232;43.944;2023-09-18T01:25:37;99589.06;;;7.93;78.62
69980;BME280;57318;56.232;43.944;2023-09-18T01:28:03;99586.53;;;7.91;78.76
69980;BME280;57318;56.232;43.944;2023-09-18T01:30:29;99596.28;;;7.91;78.88
69980;BME280;57318;56.232;43.944;2023-09-18T01:32:57;99593.53;;;7.92;79.10
69980;BME280;57318;56.232;43.944;2023-09-18T01:35:25;99587.06;;;7.97;79.09
69980;BME280;57318;56.232;43.944;2023-09-18T01:37:59;99582.63;;;7.97;78.99
69980;BME280;57318;56.232;43.944;2023-09-18T01:40:28;99572.88;;;7.98;78.92
69980;BME280;57318;56.232;43.944;2023-09-18T01:42:54;99572.88;;;7.98;78.90
69980;BME280;57318;56.232;43.944;2023-09-18T01:45:20;99577.03;;;8.02;78.69
69980;BME280;57318;56.232;43.944;2023-09-18T01:47:46;99579.59;;;8.03;78.70
69980;BME280;57318;56.232;43.944;2023-09-18T01:50:12;99573.94;;;8.08;78.52
69980;BME280;57318;56.232;43.944;2023-09-18T01:52:38;99571.97;;;8.11;78.21
69980;BME280;57318;56.232;43.944;2023-09-18T01:55:04;99567.09;;;8.18;77.71
69980;BME280;57318;56.232;43.944;2023-09-18T01:57:30;99565.06;;;8.22;77.19
69980;BME280;57318;56.232;43.944;2023-09-18T01:59:56;99558.31;;;8.30;77.10
69980;BME280;57318;56.232;43.944;2023-09-18T02:02:22;99565.19;;;8.33;76.60
69980;BME280;57318;56.232;43.944;2023-09-18T02:04:47;99558.84;;;8.36;76.41
69980;BME280;57318;56.232;43.944;2023-09-18T02:07:13;99558.72;;;8.37;76.02
69980;BME280;57318;56.232;43.944;2023-09-18T02:09:39;99551.53;;;8.39;75.98
69980;BME280;57318;56.232;43.944;2023-09-18T02:12:05;99547.09;;;8.40;75.73
69980;BME280;57318;56.232;43.944;2023-09-18T02:14:31;99552.28;;;8.41;75.62
69980;BME280;57318;56.232;43.944;2023-09-18T02:16:58;99546.88;;;8.43;75.46
69980;BME280;57318;56.232;43.944;2023-09-18T02:19:24;99538.00;;;8.44;75.38
69980;BME280;57318;56.232;43.944;2023-09-18T02:21:50;99545.00;;;8.45;75.00
69980;BME280;57318;56.232;43.944;2023-09-18T02:24:16;99549.13;;;8.49;74.87
69980;BME280;57318;56.232;43.944;2023-09-18T02:26:41;99545.31;;;8.53;74.69
69980;BME280;57318;56.232;43.944;2023-09-18T02:29:08;99541.19;;;8.62;73.90
69980;BME280;57318;56.232;43.944;2023-09-18T02:31:39;99538.94;;;8.69;73.39
69980;BME280;57318;56.232;43.944;2023-09-18T02:34:05;99533.00;;;8.78;73.04
69980;BME280;57318;56.232;43.944;2023-09-18T02:36:33;99529.91;;;8.84;72.74
69980;BME280;57318;56.232;43.944;2023-09-18T02:38:58;99536.66;;;8.88;72.49
69980;BME280;57318;56.232;43.944;2023-09-18T02:41:24;99526.38;;;8.96;71.98
69980;BME280;57318;56.232;43.944;2023-09-18T02:43:50;99529.31;;;9.05;71.96
69980;BME280;57318;56.232;43.944;2023-09-18T02:46:15;99524.50;;;9.10;71.70
69980;BME280;57318;56.232;43.944;2023-09-18T02:48:41;99526.00;;;9.14;71.49
69980;BME280;57318;56.232;43.944;2023-09-18T02:51:07;99520.59;;;9.15;71.48
69980;BME280;57318;56.232;43.944;2023-09-18T02:53:33;99522.16;;;9.18;71.49
69980;BME280;57318;56.232;43.944;2023-09-18T02:55:59;99518.53;;;9.19;71.31
69980;BME280;57318;56.232;43.944;2023-09-18T02:58:26;99525.34;;;9.23;71.33
69980;BME280;57318;56.232;43.944;2023-09-18T03:00:56;99518.09;;;9.25;71.26
69980;BME280;57318;56.232;43.944;2023-09-18T03:03:25;99526.06;;;9.25;71.41
69980;BME280;57318;56.232;43.944;2023-09-18T03:05:51;99508.22;;;9.27;71.47
69980;BME280;57318;56.232;43.944;2023-09-18T03:08:17;99507.28;;;9.28;71.54
69980;BME280;57318;56.232;43.944;2023-09-18T03:10:44;99508.09;;;9.29;71.62
69980;BME280;57318;56.232;43.944;2023-09-18T03:13:12;99497.00;;;9.24;71.63
69980;BME280;57318;56.232;43.944;2023-09-18T03:15:38;99500.59;;;9.23;71.75
69980;BME280;57318;56.232;43.944;2023-09-18T03:18:05;99499.03;;;9.20;72.00
69980;BME280;57318;56.232;43.944;2023-09-18T03:20:32;99499.03;;;9.20;71.85
69980;BME280;57318;56.232;43.944;2023-09-18T03:23:00;99502.88;;;9.16;72.08
69980;BME280;57318;56.232;43.944;2023-09-18T03:25:27;99490.56;;;9.15;72.29
69980;BME280;57318;56.232;43.944;2023-09-18T03:27:55;99487.19;;;9.13;72.18
69980;BME280;57318;56.232;43.944;2023-09-18T03:30:23;99487.06;;;9.14;72.28
69980;BME280;57318;56.232;43.944;2023-09-18T03:32:49;99485.25;;;9.15;72.31
69980;BME280;57318;56.232;43.944;2023-09-18T03:35:16;99487.69;;;9.18;72.35
69980;BME280;57318;56.232;43.944;2023-09-18T03:37:49;99491.09;;;9.20;72.36
69980;BME280;57318;56.232;43.944;2023-09-18T03:40:17;99493.75;;;9.20;72.06
69980;BME280;57318;56.232;43.944;2023-09-18T03:42:43;99493.50;;;9.23;72.12
69980;BME280;57318;56.232;43.944;2023-09-18T03:45:09;99488.81;;;9.27;72.08
69980;BME280;57318;56.232;43.944;2023-09-18T03:47:36;99489.66;;;9.27;72.15
69980;BME280;57318;56.232;43.944;2023-09-18T03:50:11;99486.06;;;9.28;72.11
69980;BME280;57318;56.232;43.944;2023-09-18T03:52:38;99482.22;;;9.32;71.94
69980;BME280;57318;56.232;43.944;2023-09-18T03:55:05;99478.38;;;9.36;71.87
69980;BME280;57318;56.232;43.944;2023-09-18T03:57:31;99475.50;;;9.39;71.74
69980;BME280;57318;56.232;43.944;2023-09-18T03:59:57;99467.91;;;9.46;71.79
69980;BME280;57318;56.232;43.944;2023-09-18T04:02:24;99469.38;;;9.50;71.74
69980;BME280;57318;56.232;43.944;2023-09-18T04:04:51;99468.81;;;9.58;71.36
69980;BME280;57318;56.232;43.944;2023-09-18T04:07:18;99464.00;;;9.63;71.25
69980;BME280;57318;56.232;43.944;2023-09-18T04:09:45;99455.56;;;9.69;70.85
69980;BME280;57318;56.232;43.944;2023-09-18T04:12:11;99466.56;;;9.76;70.71
69980;BME280;57318;56.232;43.944;2023-09-18T04:14:37;99464.06;;;9.86;70.45
69980;BME280;57318;56.232;43.944;2023-09-18T04:17:03;99458.06;;;9.95;70.12
69980;BME280;57318;56.232;43.944;2023-09-18T04:19:29;99454.78;;;10.03;70.03
69980;BME280;57318;56.232;43.944;2023-09-18T04:21:55;99452.63;;;10.08;69.63
69980;BME280;57318;56.232;43.944;2023-09-18T04:24:23;99453.22;;;10.11;69.64
69980;BME280;57318;56.232;43.944;2023-09-18T04:26:49;99459.38;;;10.12;69.58
69980;BME280;57318;56.232;43.944;2023-09-18T04:29:19;99447.22;;;10.21;69.54
69980;BME280;57318;56.232;43.944;2023-09-18T04:31:45;99449.03;;;10.32;69.41
69980;BME280;57318;56.232;43.944;2023-09-18T04:34:12;99448.81;;;10.35;69.18
69980;BME280;57318;56.232;43.944;2023-09-18T04:36:38;99458.09;;;10.40;69.01
69980;BME280;57318;56.232;43.944;2023-09-18T04:39:05;99448.09;;;10.44;68.86
69980;BME280;57318;56.232;43.944;2023-09-18T04:41:31;99457.59;;;10.46;68.94
69980;BME280;57318;56.232;43.944;2023-09-18T04:43:58;99465.81;;;10.55;68.87
69980;BME280;57318;56.232;43.944;2023-09-18T04:46:24;99463.53;;;10.61;68.86
69980;BME280;57318;56.232;43.944;2023-09-18T04:48:51;99457.47;;;10.71;68.63
69980;BME280;57318;56.232;43.944;2023-09-18T04:51:16;99468.44;;;10.77;68.70
69980;BME280;57318;56.232;43.944;2023-09-18T04:53:42;99468.66;;;10.86;68.17
69980;BME280;57318;56.232;43.944;2023-09-18T04:56:08;99468.88;;;10.94;68.29
69980;BME280;57318;56.232;43.944;2023-09-18T04:58:36;99455.09;;;11.00;68.06
69980;BME280;57318;56.232;43.944;2023-09-18T05:01:02;99462.91;;;11.13;67.77
69980;BME280;57318;56.232;43.944;2023-09-18T05:03:30;99460.22;;;11.24;67.70
69980;BME280;57318;56.232;43.944;2023-09-18T05:05:55;99454.72;;;11.37;67.08
69980;BME280;57318;56.232;43.944;2023-09-18T05:08:21;99454.69;;;11.48;67.00
69980;BME280;57318;56.232;43.944;2023-09-18T05:10:48;99456.75;;;11.66;66.62
69980;BME280;57318;56.232;43.944;2023-09-18T05:13:14;99456.00;;;11.75;66.00
69980;BME280;57318;56.232;43.944;2023-09-18T05:15:39;99455.91;;;11.86;65.84
69980;BME280;57318;56.232;43.944;2023-09-18T05:18:05;99450.09;;;11.93;65.31
69980;BME280;57318;56.232;43.944;2023-09-18T05:20:31;99437.00;;;11.89;65.35
69980;BME280;57318;56.232;43.944;2023-09-18T05:22:58;99449.25;;;11.92;65.48
69980;BME280;57318;56.232;43.944;2023-09-18T05:25:26;99453.19;;;11.98;65.45
69980;BME280;57318;56.232;43.944;2023-09-18T05:27:53;99449.75;;;12.07;65.47
69980;BME280;57318;56.232;43.944;2023-09-18T05:30:33;99459.44;;;12.08;65.49
69980;BME280;57318;56.232;43.944;2023-09-18T05:33:05;99442.94;;;12.14;65.42
69980;BME280;57318;56.232;43.944;2023-09-18T05:35:36;99452.53;;;12.26;65.11
69980;BME280;57318;56.232;43.944;2023-09-18T05:38:05;99444.00;;;12.33;65.00
69980;BME280;57318;56.232;43.944;2023-09-18T05:40:32;99449.66;;;12.49;64.83
69980;BME280;57318;56.232;43.944;2023-09-18T05:42:58;99454.44;;;12.55;64.40
69980;BME280;57318;56.232;43.944;2023-09-18T05:45:24;99443.69;;;12.67;64.12
69980;BME280;57318;56.232;43.944;2023-09-18T05:47:50;99444.56;;;12.96;63.56
69980;BME280;57318;56.232;43.944;2023-09-18T05:50:16;99451.06;;;13.23;62.54
69980;BME280;57318;56.232;43.944;2023-09-18T05:52:44;99441.97;;;13.45;61.89
69980;BME280;57318;56.232;43.944;2023-09-18T05:55:10;99439.72;;;13.60;61.20
69980;BME280;57318;56.232;43.944;2023-09-18T05:57:36;99437.25;;;13.86;60.62
69980;BME280;57318;56.232;43.944;2023-09-18T06:00:03;99437.31;;;14.52;58.58
69980;BME280;57318;56.232;43.944;2023-09-18T06:02:30;99440.84;;;15.08;56.77
69980;BME280;57318;56.232;43.944;2023-09-18T06:04:59;99444.84;;;15.84;54.99
69980;BME280;57318;56.232;43.944;2023-09-18T06:07:29;99428.19;;;16.24;53.08
69980;BME280;57318;56.232;43.944;2023-09-18T06:09:57;99440.41;;;17.21;51.73
69980;BME280;57318;56.232;43.944;2023-09-18T06:12:23;99438.56;;;18.12;47.96
69980;BME280;57318;56.232;43.944;2023-09-18T06:14:49;99432.09;;;18.37;47.29
69980;BME280;57318;56.232;43.944;2023-09-18T06:17:16;99436.78;;;18.44;47.68
69980;BME280;57318;56.232;43.944;2023-09-18T06:19:42;99439.94;;;18.95;45.96
69980;BME280;57318;56.232;43.944;2023-09-18T06:22:08;99439.22;;;19.47;44.92
69980;BME280;57318;56.232;43.944;2023-09-18T06:24:34;99442.38;;;19.74;43.74
69980;BME280;57318;56.232;43.944;2023-09-18T06:27:00;99428.69;;;19.61;44.26
69980;BME280;57318;56.232;43.944;2023-09-18T06:29:26;99425.25;;;19.29;45.19
69980;BME280;57318;56.232;43.944;2023-09-18T06:31:52;99427.41;;;19.34;45.19
69980;BME280;57318;56.232;43.944;2023-09-18T06:34:18;99432.56;;;19.43;45.09
69980;BME280;57318;56.232;43.944;2023-09-18T06:36:43;99419.00;;;19.52;44.79
69980;BME280;57318;56.232;43.944;2023-09-18T06:39:09;99427.81;;;20.22;42.99
69980;BME280;57318;56.232;43.944;2023-09-18T06:41:35;99424.38;;;20.94;41.86
69980;BME280;57318;56.232;43.944;2023-09-18T06:44:01;99422.00;;;21.06;41.09
69980;BME280;57318;56.232;43.944;2023-09-18T06:46:29;99412.25;;;20.53;41.64
69980;BME280;57318;56.232;43.944;2023-09-18T06:48:56;99412.25;;;20.38;42.14
69980;BME280;57318;56.232;43.944;2023-09-18T06:51:27;99410.56;;;20.23;42.61
69980;BME280;57318;56.232;43.944;2023-09-18T06:53:53;99403.97;;;20.25;42.91
69980;BME280;57318;56.232;43.944;2023-09-18T06:56:20;99401.13;;;20.63;41.74
69980;BME280;57318;56.232;43.944;2023-09-18T06:58:45;99400.41;;;20.69;41.42
69980;BME280;57318;56.232;43.944;2023-09-18T07:01:13;99407.03;;;20.37;41.46
69980;BME280;57318;56.232;43.944;2023-09-18T07:03:40;99399.97;;;20.06;42.73
69980;BME280;57318;56.232;43.944;2023-09-18T07:06:06;99412.16;;;19.64;43.68
69980;BME280;57318;56.232;43.944;2023-09-18T07:08:32;99412.16;;;19.64;44.20
69980;BME280;57318;56.232;43.944;2023-09-18T07:10:59;99413.44;;;20.51;42.49
69980;BME280;57318;56.232;43.944;2023-09-18T07:13:24;99405.09;;;20.97;41.35
69980;BME280;57318;56.232;43.944;2023-09-18T07:15:50;99398.53;;;20.85;41.29
69980;BME280;57318;56.232;43.944;2023-09-18T07:18:16;99395.84;;;21.50;40.41
69980;BME280;57318;56.232;43.944;2023-09-18T07:20:43;99401.03;;;21.73;39.61
69980;BME280;57318;56.232;43.944;2023-09-18T07:23:10;99404.13;;;21.70;39.83
69980;BME280;57318;56.232;43.944;2023-09-18T07:25:36;99399.00;;;21.81;40.00
69980;BME280;57318;56.232;43.944;2023-09-18T07:28:08;99401.25;;;22.06;39.68
69980;BME280;57318;56.232;43.944;2023-09-18T07:30:34;99398.00;;;22.24;39.72
69980;BME280;57318;56.232;43.944;2023-09-18T07:33:02;99410.03;;;22.98;38.65
69980;BME280;57318;56.232;43.944;2023-09-18T07:35:29;99407.53;;;24.37;36.37
69980;BME280;57318;56.232;43.944;2023-09-18T07:37:54;99404.75;;;25.41;32.63
69980;BME280;57318;56.232;43.944;2023-09-18T07:40:20;99420.53;;;26.26;31.36
69980;BME280;57318;56.232;43.944;2023-09-18T07:42:46;99409.81;;;25.63;31.70
69980;BME280;57318;56.232;43.944;2023-09-18T07:45:12;99419.69;;;25.25;32.54
69980;BME280;57318;56.232;43.944;2023-09-18T07:47:38;99413.94;;;25.08;32.95
69980;BME280;57318;56.232;43.944;2023-09-18T07:50:05;99418.81;;;24.93;32.88
69980;BME280;57318;56.232;43.944;2023-09-18T07:52:32;99420.50;;;24.28;33.89
69980;BME280;57318;56.232;43.944;2023-09-18T07:54:58;99413.88;;;23.77;34.94
69980;BME280;57318;56.232;43.944;2023-09-18T07:57:25;99417.22;;;23.46;35.83
69980;BME280;57318;56.232;43.944;2023-09-18T07:59:54;99408.66;;;23.83;35.11
69980;BME280;57318;56.232;43.944;2023-09-18T08:02:20;99409.50;;;23.76;35.19
69980;BME280;57318;56.232;43.944;2023-09-18T08:04:47;99406.78;;;23.76;35.42
69980;BME280;57318;56.232;43.944;2023-09-18T08:07:13;99406.38;;;23.79;35.58
69980;BME280;57318;56.232;43.944;2023-09-18T08:09:39;99408.69;;;23.96;35.13
69980;BME280;57318;56.232;43.944;2023-09-18T08:12:11;99402.63;;;23.81;35.10
69980;BME280;57318;56.232;43.944;2023-09-18T08:14:36;99402.53;;;23.07;36.17
69980;BME280;57318;56.232;43.944;2023-09-18T08:17:03;99390.56;;;22.26;37.88
69980;BME280;57318;56.232;43.944;2023-09-18T08:19:30;99395.81;;;21.99;38.51
69980;BME280;57318;56.232;43.944;2023-09-18T08:21:58;99391.03;;;22.02;38.47
69980;BME280;57318;56.232;43.944;2023-09-18T08:24:25;99390.88;;;22.45;37.92
69980;BME280;57318;56.232;43.944;2023-09-18T08:26:51;99399.28;;;23.72;36.13
69980;BME280;57318;56.232;43.944;2023-09-18T08:29:18;99398.28;;;25.03;33.63
69980;BME280;57318;56.232;43.944;2023-09-18T08:31:44;99396.56;;;25.91;31.48
69980;BME280;57318;56.232;43.944;2023-09-18T08:34:10;99401.44;;;26.08;31.12
69980;BME280;57318;56.232;43.944;2023-09-18T08:36:35;99392.63;;;26.31;31.00
69980;BME280;57318;56.232;43.944;2023-09-18T08:39:01;99394.38;;;25.31;31.98
69980;BME280;57318;56.232;43.944;2023-09-18T08:41:31;99399.75;;;24.61;33.40
69980;BME280;57318;56.232;43.944;2023-09-18T08:44:02;99393.44;;;23.95;34.71
69980;BME280;57318;56.232;43.944;2023-09-18T08:46:29;99389.22;;;23.12;36.51
69980;BME280;57318;56.232;43.944;2023-09-18T08:48:57;99382.28;;;22.89;37.13
69980;BME280;57318;56.232;43.944;2023-09-18T08:51:24;99404.72;;;23.52;36.04
69980;BME280;57318;56.232;43.944;2023-09-18T08:53:51;99382.97;;;24.12;34.84
69980;BME280;57318;56.232;43.944;2023-09-18T08:56:18;99389.66;;;25.45;32.52
69980;BME280;57318;56.232;43.944;2023-09-18T08:58:46;99380.59;;;26.76;30.72
69980;BME280;57318;56.232;43.944;2023-09-18T09:01:13;99395.44;;;28.00;28.56
69980;BME280;57318;56.232;43.944;2023-09-18T09:03:40;99389.50;;;28.67;28.00
69980;BME280;57318;56.232;43.944;2023-09-18T09:06:07;99389.47;;;29.37;26.71
69980;BME280;57318;56.232;43.944;2023-09-18T09:08:34;99391.59;;;30.41;25.32
69980;BME280;57318;56.232;43.944;2023-09-18T09:11:01;99397.50;;;30.77;24.21
69980;BME280;57318;56.232;43.944;2023-09-18T09:13:27;99393.19;;;30.59;24.54
69980;BME280;57318;56.232;43.944;2023-09-18T09:15:54;99391.78;;;31.66;23.41
69980;BME280;57318;56.232;43.944;2023-09-18T09:18:27;99392.25;;;32.38;22.54
69980;BME280;57318;56.232;43.944;2023-09-18T09:21:02;99391.44;;;32.43;22.20
69980;BME280;57318;56.232;43.944;2023-09-18T09:23:47;99399.31;;;31.81;22.94
69980;BME280;57318;56.232;43.944;2023-09-18T09:26:21;99365.81;;;29.64;25.66
69980;BME280;57318;56.232;43.944;2023-09-18T09:28:47;99375.13;;;28.19;27.78
69980;BME280;57318;56.232;43.944;2023-09-18T09:31:34;99382.84;;;26.60;30.15
69980;BME280;57318;56.232;43.944;2023-09-18T09:33:59;99383.56;;;25.50;32.03
69980;BME280;57318;56.232;43.944;2023-09-18T09:36:30;99385.00;;;24.82;33.29
69980;BME280;57318;56.232;43.944;2023-09-18T09:38:58;99382.91;;;24.25;34.02
69980;BME280;57318;56.232;43.944;2023-09-18T09:41:24;99383.84;;;23.66;35.23
69980;BME280;57318;56.232;43.944;2023-09-18T09:43:53;99379.88;;;23.41;35.99
69980;BME280;57318;56.232;43.944;2023-09-18T09:46:21;99383.16;;;23.03;36.87
69980;BME280;57318;56.232;43.944;2023-09-18T09:49:04;99380.69;;;22.47;37.60
69980;BME280;57318;56.232;43.944;2023-09-18T09:51:31;99370.53;;;22.21;38.35
69980;BME280;57318;56.232;43.944;2023-09-18T09:53:58;99393.00;;;23.11;36.79
69980;BME280;57318;56.232;43.944;2023-09-18T09:56:41;99387.38;;;23.26;36.16
69980;BME280;57318;56.232;43.944;2023-09-18T09:59:09;99393.81;;;23.12;36.47
69980;BME280;57318;56.232;43.944;2023-09-18T10:01:37;99396.94;;;23.15;36.92
69980;BME280;57318;56.232;43.944;2023-09-18T10:04:12;99395.34;;;22.73;37.57
69980;BME280;57318;56.232;43.944;2023-09-18T10:06:44;99391.53;;;22.12;38.46
69980;BME280;57318;56.232;43.944;2023-09-18T10:09:13;99389.81;;;21.76;39.26
69980;BME280;57318;56.232;43.944;2023-09-18T10:11:45;99389.06;;;21.39;39.87
69980;BME280;57318;56.232;43.944;2023-09-18T10:14:18;99393.25;;;20.98;40.95
69980;BME280;57318;56.232;43.944;2023-09-18T10:16:50;99392.63;;;20.81;41.76
69980;BME280;57318;56.232;43.944;2023-09-18T10:19:27;99386.97;;;20.91;41.74
69980;BME280;57318;56.232;43.944;2023-09-18T10:24:34;99387.41;;;21.59;40.60
69980;BME280;57318;56.232;43.944;2023-09-18T10:27:06;99391.16;;;21.87;40.21
69980;BME280;57318;56.232;43.944;2023-09-18T10:29:35;99386.53;;;21.80;40.57
69980;BME280;57318;56.232;43.944;2023-09-18T10:32:06;99386.22;;;21.69;40.92
69980;BME280;57318;56.232;43.944;2023-09-18T10:34:35;99384.56;;;21.46;40.62
69980;BME280;57318;56.232;43.944;2023-09-18T10:37:03;99388.28;;;21.45;40.49
69980;BME280;57318;56.232;43.944;2023-09-18T10:39:35;99380.53;;;21.57;40.45
69980;BME280;57318;56.232;43.944;2023-09-18T10:42:02;99386.06;;;21.49;40.51
69980;BME280;57318;56.232;43.944;2023-09-18T10:44:30;99390.44;;;21.06;41.38
69980;BME280;57318;56.232;43.944;2023-09-18T10:46:57;99397.66;;;20.84;42.30
69980;BME280;57318;56.232;43.944;2023-09-18T10:49:24;99390.91;;;20.73;42.72
69980;BME280;57318;56.232;43.944;2023-09-18T10:51:53;99391.91;;;20.58;43.24
69980;BME280;57318;56.232;43.944;2023-09-18T10:54:29;99386.94;;;20.25;44.04
69980;BME280;57318;56.232;43.944;2023-09-18T10:56:56;99378.78;;;20.03;44.85
69980;BME280;57318;56.232;43.944;2023-09-18T10:59:22;99378.84;;;19.80;45.62
69980;BME280;57318;56.232;43.944;2023-09-18T11:01:48;99385.56;;;19.61;46.60
69980;BME280;57318;56.232;43.944;2023-09-18T11:04:18;99386.81;;;19.35;47.19
69980;BME280;57318;56.232;43.944;2023-09-18T11:09:26;99388.47;;;18.90;47.75
69980;BME280;57318;56.232;43.944;2023-09-18T11:12:16;99382.94;;;18.91;48.21
69980;BME280;57318;56.232;43.944;2023-09-18T11:14:57;99377.94;;;19.03;47.72
69980;BME280;57318;56.232;43.944;2023-09-18T11:17:37;99380.03;;;19.16;47.47
69980;BME280;57318;56.232;43.944;2023-09-18T11:22:48;99375.75;;;19.07;47.75
69980;BME280;57318;56.232;43.944;2023-09-18T11:28:22;99382.09;;;18.83;48.42
69980;BME280;57318;56.232;43.944;2023-09-18T11:30:51;99380.28;;;18.75;49.00
69980;BME280;57318;56.232;43.944;2023-09-18T11:33:35;99382.44;;;18.80;49.49
69980;BME280;57318;56.232;43.944;2023-09-18T11:36:06;99387.34;;;18.84;49.25
69980;BME280;57318;56.232;43.944;2023-09-18T11:38:34;99387.88;;;18.71;49.33
69980;BME280;57318;56.232;43.944;2023-09-18T11:41:21;99387.31;;;18.53;49.92
69980;BME280;57318;56.232;43.944;2023-09-18T11:43:47;99380.63;;;18.40;50.19
69980;BME280;57318;56.232;43.944;2023-09-18T11:46:18;99392.41;;;18.39;50.45
69980;BME280;57318;56.232;43.944;2023-09-18T11:48:44;99386.00;;;18.49;50.47
69980;BME280;57318;56.232;43.944;2023-09-18T11:51:14;99394.22;;;18.87;49.74
69980;BME280;57318;56.232;43.944;2023-09-18T11:53:46;99393.59;;;21.10;45.18
69980;BME280;57318;56.232;43.944;2023-09-18T11:56:13;99392.91;;;22.84;40.87
69980;BME280;57318;56.232;43.944;2023-09-18T11:58:50;99388.81;;;24.09;37.95
69980;BME280;57318;56.232;43.944;2023-09-18T12:01:20;99392.53;;;24.28;37.43
69980;BME280;57318;56.232;43.944;2023-09-18T12:03:55;99399.25;;;24.12;37.46
69980;BME280;57318;56.232;43.944;2023-09-18T12:06:21;99382.59;;;23.95;37.64
69980;BME280;57318;56.232;43.944;2023-09-18T12:08:48;99398.56;;;23.03;39.27
69980;BME280;57318;56.232;43.944;2023-09-18T12:11:14;99394.41;;;22.45;40.36
69980;BME280;57318;56.232;43.944;2023-09-18T12:13:43;99388.44;;;21.58;42.18
69980;BME280;57318;56.232;43.944;2023-09-18T12:16:09;99381.16;;;21.16;43.26
69980;BME280;57318;56.232;43.944;2023-09-18T12:18:35;99383.34;;;20.84;43.94
69980;BME280;57318;56.232;43.944;2023-09-18T12:21:06;99384.88;;;20.57;44.71
69980;BME280;57318;56.232;43.944;2023-09-18T12:23:39;99380.16;;;20.14;45.71
69980;BME280;57318;56.232;43.944;2023-09-18T12:26:05;99382.50;;;19.87;46.37
69980;BME280;57318;56.232;43.944;2023-09-18T12:28:37;99396.09;;;19.71;46.86
69980;BME280;57318;56.232;43.944;2023-09-18T12:31:04;99398.41;;;19.59;47.21
69980;BME280;57318;56.232;43.944;2023-09-18T12:33:37;99389.63;;;19.57;47.46
69980;BME280;57318;56.232;43.944;2023-09-18T12:36:04;99380.44;;;20.04;46.48
69980;BME280;57318;56.232;43.944;2023-09-18T12:38:31;99386.59;;;20.13;46.36
69980;BME280;57318;56.232;43.944;2023-09-18T12:40:58;99392.53;;;20.89;44.96
69980;BME280;57318;56.232;43.944;2023-09-18T12:43:41;99401.72;;;22.45;41.14
69980;BME280;57318;56.232;43.944;2023-09-18T12:46:08;99411.16;;;23.37;38.60
69980;BME280;57318;56.232;43.944;2023-09-18T12:48:39;99397.97;;;24.14;36.79
69980;BME280;57318;56.232;43.944;2023-09-18T12:51:11;99407.41;;;24.77;35.60
69980;BME280;57318;56.232;43.944;2023-09-18T12:53:37;99408.22;;;25.16;34.68
69980;BME280;57318;56.232;43.944;2023-09-18T12:56:10;99402.03;;;25.41;33.80
69980;BME280;57318;56.232;43.944;2023-09-18T12:58:40;99412.56;;;25.81;33.21
69980;BME280;57318;56.232;43.944;2023-09-18T13:01:09;99409.31;;;25.98;32.98
69980;BME280;57318;56.232;43.944;2023-09-18T13:03:45;99407.84;;;25.45;33.33
69980;BME280;57318;56.232;43.944;2023-09-18T13:06:15;99411.97;;;24.83;34.51
69980;BME280;57318;56.232;43.944;2023-09-18T13:08:43;99412.91;;;24.64;34.76